Terminal Aerodrome Forecast
Issued by NWS

Home | Current Version | Previous Version | Graphics & Text | Print | Product List | Glossary On
Versions: 1 2 3 4 5 6 7 8 9
257
FTUS43 KTOP 201733
TAFFOE
TAF
KFOE 201733Z 2018/2118 34009KT P6SM SCT150
     FM210100 04006KT P6SM SCT200=

USA.gov is the U.S. government's official web portal to all federal, state and local government web resources and services.